createdAt,value
2017-10-11T00:02:17.709Z,21.87
2017-10-11T00:04:45.323Z,22.83
2017-10-11T00:07:12.967Z,19.23
2017-10-11T00:09:40.718Z,18.60
2017-10-11T00:12:08.341Z,15.93
2017-10-11T00:14:36.747Z,19.77
2017-10-11T00:17:04.383Z,18.77
2017-10-11T00:19:32.063Z,19.83
2017-10-11T00:21:59.691Z,18.27
2017-10-11T00:24:28.120Z,22.77
2017-10-11T00:26:55.740Z,15.30
2017-10-11T00:29:24.128Z,16.13
2017-10-11T00:31:52.540Z,19.13
2017-10-11T00:34:20.158Z,14.57
2017-10-11T00:36:48.564Z,15.93
2017-10-11T00:39:16.179Z,14.17
2017-10-11T00:41:45.347Z,14.97
2017-10-11T00:44:13.017Z,15.87
2017-10-11T00:46:40.647Z,13.40
2017-10-11T00:49:08.300Z,12.27
2017-10-11T00:51:35.927Z,12.93
2017-10-11T00:54:03.587Z,11.20
2017-10-11T00:56:31.228Z,10.63
2017-10-11T00:58:58.891Z,10.40
2017-10-11T01:01:26.514Z,11.07
2017-10-11T01:03:54.189Z,16.20
2017-10-11T01:06:21.827Z,10.57
2017-10-11T01:08:50.451Z,12.50
2017-10-11T01:11:18.075Z,12.60
2017-10-11T01:13:45.878Z,9.73
2017-10-11T01:16:13.518Z,9.53
2017-10-11T01:18:41.151Z,9.93
2017-10-11T01:21:09.568Z,12.40
2017-10-11T01:23:37.191Z,9.40
2017-10-11T01:26:05.624Z,9.90
2017-10-11T01:28:33.257Z,11.10
2017-10-11T01:31:00.916Z,12.00
2017-10-11T01:33:28.611Z,12.30
2017-10-11T01:35:56.295Z,13.10
2017-10-11T01:38:23.947Z,15.63
2017-10-11T01:40:51.570Z,11.30
2017-10-11T01:43:19.229Z,13.27
2017-10-11T01:45:46.864Z,10.77
2017-10-11T01:48:15.283Z,10.57
2017-10-11T01:50:42.905Z,12.47
2017-10-11T01:53:11.327Z,13.53
2017-10-11T01:55:38.952Z,16.77
2017-10-11T01:58:07.489Z,13.97
2017-10-11T02:00:35.130Z,12.63
2017-10-11T02:03:02.787Z,12.50
2017-10-11T02:05:30.492Z,12.13
2017-10-11T02:07:58.954Z,14.70
2017-10-11T02:10:26.581Z,19.37
2017-10-11T02:12:54.229Z,16.10
2017-10-11T02:15:22.617Z,15.20
2017-10-11T02:17:51.062Z,20.90
2017-10-11T02:20:18.713Z,13.63
2017-10-11T02:22:46.466Z,15.57
2017-10-11T02:25:14.107Z,20.63
2017-10-11T02:27:41.751Z,17.17
2017-10-11T02:30:09.382Z,21.03
2017-10-11T02:32:37.046Z,17.07
2017-10-11T02:35:05.447Z,17.80
2017-10-11T02:37:33.171Z,16.70
2017-10-11T02:40:00.940Z,22.63
2017-10-11T02:42:28.583Z,18.93
2017-10-11T02:44:56.251Z,21.83
2017-10-11T02:47:23.891Z,15.70
2017-10-11T02:49:51.553Z,16.80
2017-10-11T02:52:19.184Z,15.53
2017-10-11T02:54:47.612Z,16.37
2017-10-11T02:57:15.259Z,15.10
2017-10-11T02:59:42.883Z,15.70
2017-10-11T03:02:11.423Z,20.40
2017-10-11T03:04:39.056Z,17.00
2017-10-11T03:07:06.711Z,18.80
2017-10-11T03:09:34.420Z,23.13
2017-10-11T03:12:02.185Z,22.77
2017-10-11T03:14:29.828Z,17.20
2017-10-11T03:16:57.480Z,19.90
2017-10-11T03:19:25.126Z,20.40
2017-10-11T03:21:52.751Z,21.87
2017-10-11T03:24:21.322Z,19.03
2017-10-11T03:26:48.934Z,15.73
2017-10-11T03:29:16.577Z,20.77
2017-10-11T03:31:44.982Z,15.80
2017-10-11T03:34:12.605Z,24.27
2017-10-11T03:36:40.264Z,24.60
2017-10-11T03:39:07.891Z,19.13
2017-10-11T03:41:35.556Z,17.80
2017-10-11T03:44:03.199Z,18.27
2017-10-11T03:46:30.819Z,20.53
2017-10-11T03:48:59.239Z,22.63
2017-10-11T03:51:27.022Z,22.37
2017-10-11T03:53:54.683Z,19.60
2017-10-11T03:56:22.312Z,23.23
2017-10-11T03:58:49.940Z,19.87
2017-10-11T04:01:17.582Z,18.50
2017-10-11T04:03:45.207Z,30.73
2017-10-11T04:06:12.894Z,26.53
2017-10-11T04:08:40.531Z,19.90
2017-10-11T04:11:08.186Z,15.97
2017-10-11T04:13:35.814Z,24.00
2017-10-11T04:16:03.445Z,18.17
2017-10-11T04:18:31.096Z,22.93
2017-10-11T04:20:58.719Z,18.40
2017-10-11T04:23:27.148Z,20.13
2017-10-11T04:25:54.771Z,18.20
2017-10-11T04:28:22.411Z,16.57
2017-10-11T04:30:50.848Z,18.27
2017-10-11T04:33:18.498Z,21.07
2017-10-11T04:35:46.159Z,18.23
2017-10-11T04:38:13.790Z,22.53
2017-10-11T04:40:42.219Z,20.30
2017-10-11T04:43:09.855Z,19.30
2017-10-11T04:45:37.503Z,21.47
2017-10-11T04:48:05.132Z,16.20
2017-10-11T04:50:32.859Z,16.20
2017-10-11T04:53:00.471Z,14.97
2017-10-11T04:55:28.862Z,15.40
2017-10-11T04:57:57.279Z,18.10
2017-10-11T05:00:24.887Z,17.90
2017-10-11T05:02:53.302Z,14.23
2017-10-11T05:05:20.927Z,14.57
2017-10-11T05:07:48.563Z,12.70
2017-10-11T05:10:16.190Z,15.87
2017-10-11T05:12:44.703Z,14.27
2017-10-11T05:15:12.331Z,18.10
2017-10-11T05:17:39.983Z,13.10
2017-10-11T05:20:07.593Z,15.60
2017-10-11T05:22:35.247Z,14.50
2017-10-11T05:25:02.932Z,14.97
2017-10-11T05:27:30.668Z,16.30
2017-10-11T05:29:58.317Z,13.50
2017-10-11T05:32:25.940Z,14.27
2017-10-11T05:34:54.473Z,19.97
2017-10-11T05:37:22.114Z,16.57
2017-10-11T05:39:49.731Z,17.47
2017-10-11T05:42:17.460Z,14.37
2017-10-11T05:44:45.101Z,16.60
2017-10-11T05:47:12.752Z,14.50
2017-10-11T05:49:40.367Z,19.00
2017-10-11T05:52:08.313Z,14.27
2017-10-11T05:54:35.958Z,17.00
2017-10-11T05:57:03.859Z,15.10
2017-10-11T05:59:31.628Z,17.67
2017-10-11T06:01:59.271Z,13.00
2017-10-11T06:04:26.936Z,10.43
2017-10-11T06:06:54.564Z,17.30
2017-10-11T06:09:22.209Z,17.93
2017-10-11T06:11:50.615Z,14.07
2017-10-11T06:14:18.293Z,14.20
2017-10-11T06:16:46.073Z,13.30
2017-10-11T06:19:13.729Z,16.50
2017-10-11T06:21:41.401Z,15.30
2017-10-11T06:24:09.154Z,17.30
2017-10-11T06:26:36.931Z,13.50
2017-10-11T06:29:04.583Z,13.70
2017-10-11T06:31:32.245Z,17.83
2017-10-11T06:33:59.924Z,11.57
2017-10-11T06:36:27.580Z,13.70
2017-10-11T06:38:55.208Z,14.33
2017-10-11T06:41:22.832Z,14.77
2017-10-11T06:43:51.296Z,11.80
2017-10-11T06:46:18.919Z,13.93
2017-10-11T06:48:46.614Z,14.00
2017-10-11T06:51:14.373Z,12.57
2017-10-11T06:53:42.036Z,15.13
2017-10-11T06:56:09.699Z,16.50
2017-10-11T06:58:37.320Z,11.83
2017-10-11T07:01:05.035Z,13.13
2017-10-11T07:03:32.654Z,11.30
2017-10-11T07:06:00.330Z,12.00
2017-10-11T07:08:28.923Z,15.77
2017-10-11T07:10:56.576Z,11.67
2017-10-11T07:13:24.198Z,6.03
2017-10-11T07:15:52.621Z,10.03
2017-10-11T07:18:20.248Z,15.17
2017-10-11T07:20:47.921Z,7.30
2017-10-11T07:23:15.624Z,10.40
2017-10-11T07:25:43.297Z,11.77
2017-10-11T07:28:10.963Z,9.67
2017-10-11T07:30:38.580Z,13.60
2017-10-11T07:33:06.234Z,10.40
2017-10-11T07:35:33.935Z,10.53
2017-10-11T07:38:01.599Z,9.33
2017-10-11T07:40:29.242Z,8.50
2017-10-11T07:42:56.867Z,12.90
2017-10-11T07:45:24.518Z,8.90
2017-10-11T07:47:52.915Z,10.67
2017-10-11T07:50:20.629Z,9.17
2017-10-11T07:52:48.323Z,12.13
2017-10-11T07:55:16.750Z,7.77
2017-10-11T07:57:44.430Z,8.70
2017-10-11T08:00:12.059Z,7.50
2017-10-11T08:02:39.719Z,11.20
2017-10-11T08:05:07.359Z,7.67
2017-10-11T08:07:35.767Z,10.43
2017-10-11T08:10:03.388Z,8.10
2017-10-11T08:12:31.840Z,8.37
2017-10-11T08:14:59.615Z,10.17
2017-10-11T08:17:27.282Z,9.13
2017-10-11T08:19:55.019Z,8.27
2017-10-11T08:22:22.637Z,8.77
2017-10-11T08:24:50.280Z,8.47
2017-10-11T08:27:17.903Z,8.50
2017-10-11T08:29:45.542Z,9.20
2017-10-11T08:32:13.252Z,7.17
2017-10-11T08:34:42.410Z,6.23
2017-10-11T08:37:10.096Z,6.70
2017-10-11T08:39:37.864Z,7.00
2017-10-11T08:42:05.491Z,10.63
2017-10-11T08:44:33.130Z,6.83
2017-10-11T08:47:01.659Z,5.77
2017-10-11T08:49:29.298Z,5.63
2017-10-11T08:51:57.120Z,6.13
2017-10-11T08:54:25.519Z,6.37
2017-10-11T08:56:53.943Z,6.40
2017-10-11T08:59:21.611Z,6.73
2017-10-11T09:01:49.271Z,7.37
2017-10-11T09:04:16.931Z,5.47
2017-10-11T09:06:44.559Z,4.93
2017-10-11T09:09:12.266Z,6.30
2017-10-11T09:11:39.894Z,7.30
2017-10-11T09:14:07.540Z,8.13
2017-10-11T09:16:35.971Z,8.20
2017-10-11T09:19:03.617Z,9.33
2017-10-11T09:21:31.311Z,10.30
2017-10-11T09:23:58.964Z,9.27
2017-10-11T09:26:26.591Z,10.57
2017-10-11T09:28:54.215Z,10.20
2017-10-11T09:31:22.633Z,10.90
2017-10-11T09:33:50.252Z,13.00
2017-10-11T09:36:17.991Z,13.47
2017-10-11T09:38:45.608Z,14.50
2017-10-11T09:41:13.235Z,15.20
2017-10-11T09:43:40.974Z,18.03
2017-10-11T09:46:08.659Z,13.90
2017-10-11T09:48:36.319Z,15.07
2017-10-11T09:51:04.109Z,21.27
2017-10-11T09:53:32.535Z,14.57
2017-10-11T09:56:00.212Z,14.30
2017-10-11T09:58:27.834Z,17.53
2017-10-11T10:00:55.488Z,13.60
2017-10-11T10:03:23.191Z,16.97
2017-10-11T10:05:50.959Z,17.97
2017-10-11T10:08:18.588Z,15.33
2017-10-11T10:10:46.427Z,18.03
2017-10-11T10:13:14.863Z,17.27
2017-10-11T10:15:42.566Z,17.33
2017-10-11T10:18:11.003Z,14.40
2017-10-11T10:20:38.716Z,16.03
2017-10-11T10:23:07.369Z,13.17
2017-10-11T10:25:35.120Z,15.93
2017-10-11T10:28:02.785Z,11.77
2017-10-11T10:30:30.416Z,16.80
2017-10-11T10:32:58.048Z,14.60
2017-10-11T10:35:26.527Z,9.87
2017-10-11T10:37:54.911Z,13.17
2017-10-11T10:40:23.387Z,13.93
2017-10-11T10:42:51.925Z,16.77
2017-10-11T10:45:19.604Z,14.57
2017-10-11T10:47:47.257Z,14.53
2017-10-11T10:50:14.872Z,13.27
2017-10-11T10:52:43.444Z,12.30
2017-10-11T10:55:12.551Z,15.27
2017-10-11T10:57:40.179Z,13.97
2017-10-11T11:00:07.816Z,9.73
2017-10-11T11:02:35.481Z,11.40
2017-10-11T11:05:03.151Z,11.27
2017-10-11T11:07:30.880Z,16.30
2017-10-11T11:09:58.573Z,13.57
2017-10-11T11:12:26.252Z,13.33
2017-10-11T11:14:53.889Z,11.17
2017-10-11T11:17:21.514Z,12.83
2017-10-11T11:19:49.949Z,13.33
2017-10-11T11:22:17.586Z,12.23
2017-10-11T11:24:45.266Z,10.80
2017-10-11T11:27:12.938Z,14.93
2017-10-11T11:29:40.584Z,11.10
2017-10-11T11:32:08.229Z,8.67
2017-10-11T11:34:35.897Z,9.87
2017-10-11T11:37:03.511Z,9.43
2017-10-11T11:39:31.182Z,10.40
2017-10-11T11:41:59.583Z,11.07
2017-10-11T11:44:27.191Z,10.13
2017-10-11T11:46:54.840Z,12.27
2017-10-11T11:49:22.484Z,9.00
2017-10-11T11:51:50.127Z,11.93
2017-10-11T11:54:17.744Z,10.83
2017-10-11T11:56:45.400Z,8.63
2017-10-11T11:59:13.024Z,8.10
2017-10-11T12:01:40.693Z,10.00
2017-10-11T12:04:08.423Z,11.30
2017-10-11T12:06:36.803Z,8.83
2017-10-11T12:09:05.214Z,7.57
2017-10-11T12:11:32.834Z,7.73
2017-10-11T12:14:01.248Z,9.00
2017-10-11T12:16:28.876Z,7.73
2017-10-11T12:18:57.317Z,5.67
2017-10-11T12:21:25.079Z,6.70
2017-10-11T12:23:52.720Z,7.63
2017-10-11T12:26:20.365Z,7.97
2017-10-11T12:28:48.001Z,8.13
2017-10-11T12:31:16.461Z,8.60
2017-10-11T12:33:44.076Z,8.30
2017-10-11T12:36:11.730Z,7.10
2017-10-11T12:38:40.174Z,6.00
2017-10-11T12:41:07.832Z,7.90
2017-10-11T12:43:36.232Z,9.63
2017-10-11T12:46:04.671Z,8.80
2017-10-11T12:48:32.320Z,8.93
2017-10-11T12:51:00.009Z,5.87
2017-10-11T12:53:27.657Z,6.17
2017-10-11T12:55:55.332Z,10.80
2017-10-11T12:58:22.983Z,5.30
2017-10-11T13:00:50.599Z,8.23
2017-10-11T13:03:19.013Z,7.60
2017-10-11T13:05:46.628Z,7.20
2017-10-11T13:08:15.023Z,8.07
2017-10-11T13:10:43.463Z,6.57
2017-10-11T13:13:11.095Z,6.60
2017-10-11T13:15:38.749Z,8.90
2017-10-11T13:18:06.367Z,5.47
2017-10-11T13:20:34.025Z,7.23
2017-10-11T13:23:01.712Z,6.10
2017-10-11T13:25:30.136Z,6.50
2017-10-11T13:27:57.796Z,6.53
2017-10-11T13:30:25.401Z,5.23
2017-10-11T13:32:53.820Z,7.93
2017-10-11T13:35:21.431Z,6.13
2017-10-11T13:37:49.069Z,4.50
2017-10-11T13:40:16.707Z,6.50
2017-10-11T13:42:44.375Z,5.70
2017-10-11T13:45:12.000Z,6.37
2017-10-11T13:47:40.378Z,5.70
2017-10-11T13:50:08.790Z,6.53
2017-10-11T13:52:36.564Z,4.83
2017-10-11T13:55:04.283Z,4.87
2017-10-11T13:57:32.716Z,4.60
2017-10-11T14:00:00.396Z,5.97
2017-10-11T14:02:28.026Z,5.27
2017-10-11T14:04:55.690Z,4.33
2017-10-11T14:07:23.369Z,4.17
2017-10-11T14:09:51.039Z,5.47
2017-10-11T14:12:18.719Z,5.00
2017-10-11T14:14:46.333Z,5.87
2017-10-11T14:17:13.998Z,3.87
2017-10-11T14:19:41.615Z,4.67
2017-10-11T14:22:10.036Z,4.17
2017-10-11T14:24:37.664Z,3.70
2017-10-11T14:27:06.112Z,7.10
2017-10-11T14:29:33.764Z,3.33
2017-10-11T14:32:01.572Z,4.17
2017-10-11T14:34:29.992Z,4.17
2017-10-11T14:36:57.627Z,5.17
2017-10-11T14:39:26.042Z,4.20
2017-10-11T14:41:53.676Z,3.47
2017-10-11T14:44:21.299Z,4.17
2017-10-11T14:46:48.949Z,5.17
2017-10-11T14:49:16.593Z,5.13
2017-10-11T14:51:44.233Z,4.60
2017-10-11T14:54:11.891Z,5.17
2017-10-11T14:56:39.534Z,5.10
2017-10-11T14:59:07.919Z,4.13
2017-10-11T15:01:35.659Z,6.10
2017-10-11T15:04:03.303Z,5.90
2017-10-11T15:06:30.944Z,6.17
2017-10-11T15:08:58.583Z,7.33
2017-10-11T15:11:26.192Z,6.13
2017-10-11T15:13:53.834Z,6.30
2017-10-11T15:16:21.459Z,6.20
2017-10-11T15:18:50.265Z,6.23
2017-10-11T15:21:18.774Z,5.20
2017-10-11T15:23:46.547Z,5.07
2017-10-11T15:26:14.209Z,7.57
2017-10-11T15:28:41.876Z,5.57
2017-10-11T15:31:09.637Z,5.30
2017-10-11T15:33:37.256Z,4.90
2017-10-11T15:36:04.908Z,6.10
2017-10-11T15:38:32.646Z,5.60
2017-10-11T15:41:01.200Z,4.50
2017-10-11T15:43:28.816Z,4.50
2017-10-11T15:45:56.636Z,4.60
2017-10-11T15:48:24.453Z,5.90
2017-10-11T15:50:52.242Z,7.37
2017-10-11T15:53:20.078Z,3.67
2017-10-11T15:55:47.864Z,5.17
2017-10-11T15:58:15.631Z,4.40
2017-10-11T16:00:43.517Z,5.10
2017-10-11T16:03:11.353Z,5.33
2017-10-11T16:05:39.240Z,6.13
2017-10-11T16:08:07.010Z,5.00
2017-10-11T16:10:34.767Z,4.10
2017-10-11T16:13:02.679Z,4.37
2017-10-11T16:15:30.491Z,4.13
2017-10-11T16:17:58.314Z,4.47
2017-10-11T16:20:26.116Z,4.00
2017-10-11T16:22:53.939Z,4.10
2017-10-11T16:25:21.713Z,4.20
2017-10-11T16:27:49.663Z,4.87
2017-10-11T16:30:17.530Z,4.87
2017-10-11T16:32:46.113Z,8.77
2017-10-11T16:35:14.293Z,4.80
2017-10-11T16:37:42.155Z,5.20
2017-10-11T16:40:10.025Z,6.50
2017-10-11T16:42:37.893Z,6.00
2017-10-11T16:45:05.752Z,5.40
2017-10-11T16:47:33.623Z,4.67
2017-10-11T16:50:01.460Z,5.50
2017-10-11T16:52:29.355Z,5.87
2017-10-11T16:54:57.221Z,6.13
2017-10-11T16:57:25.092Z,8.57
2017-10-11T16:59:52.879Z,5.83
2017-10-11T17:02:21.499Z,5.13
2017-10-11T17:04:49.263Z,8.03
2017-10-11T17:07:17.068Z,5.97
2017-10-11T17:09:44.851Z,7.17
2017-10-11T17:12:12.660Z,6.23
2017-10-11T17:14:40.438Z,7.17
2017-10-11T17:17:08.342Z,8.33
2017-10-11T17:19:36.303Z,7.07
2017-10-11T17:22:04.171Z,6.73
2017-10-11T17:24:31.997Z,6.57
2017-10-11T17:26:59.796Z,7.70
2017-10-11T17:29:28.359Z,7.93
2017-10-11T17:31:56.164Z,6.83
2017-10-11T17:34:24.020Z,8.13
2017-10-11T17:36:51.829Z,11.50
2017-10-11T17:39:19.656Z,7.50
2017-10-11T17:41:47.418Z,6.57
2017-10-11T17:44:15.253Z,6.20
2017-10-11T17:46:43.071Z,6.27
2017-10-11T17:49:11.626Z,8.43
2017-10-11T17:51:39.523Z,7.60
2017-10-11T17:54:08.092Z,12.63
2017-10-11T17:56:35.912Z,7.50
2017-10-11T17:59:03.539Z,5.60
2017-10-11T18:01:31.973Z,8.10
2017-10-11T18:03:59.592Z,8.43
2017-10-11T18:06:27.979Z,5.93
2017-10-11T18:08:55.624Z,7.60
2017-10-11T18:11:24.003Z,7.67
2017-10-11T18:13:52.441Z,6.40
2017-10-11T18:16:20.073Z,10.10
2017-10-11T18:18:47.725Z,10.93
2017-10-11T18:21:15.349Z,6.73
2017-10-11T18:23:42.999Z,9.10
2017-10-11T18:26:10.809Z,5.60
2017-10-11T18:28:38.458Z,6.77
2017-10-11T18:31:06.907Z,6.70
2017-10-11T18:33:34.591Z,6.70
2017-10-11T18:36:02.247Z,5.37
2017-10-11T18:38:29.877Z,5.80
2017-10-11T18:40:57.539Z,5.77
2017-10-11T18:43:25.164Z,6.63
2017-10-11T18:45:53.605Z,5.20
2017-10-11T18:48:21.243Z,5.60
2017-10-11T18:50:48.860Z,7.33
2017-10-11T18:53:17.269Z,6.13
2017-10-11T18:55:44.889Z,6.20
2017-10-11T18:58:13.345Z,5.97
2017-10-11T19:00:40.969Z,5.90
2017-10-11T19:03:08.600Z,8.90
2017-10-11T19:05:37.003Z,5.03
2017-10-11T19:08:04.619Z,5.23
2017-10-11T19:10:32.283Z,5.30
2017-10-11T19:12:59.909Z,5.97
2017-10-11T19:15:27.560Z,4.57
2017-10-11T19:17:55.175Z,5.83
2017-10-11T19:20:23.582Z,4.63
2017-10-11T19:22:51.197Z,9.30
2017-10-11T19:25:18.834Z,6.97
2017-10-11T19:27:46.447Z,7.20
2017-10-11T19:30:14.881Z,3.93
2017-10-11T19:32:42.769Z,4.30
2017-10-11T19:35:10.498Z,3.93
2017-10-11T19:37:38.202Z,8.50
2017-10-11T19:40:05.908Z,5.40
2017-10-11T19:42:33.552Z,3.50
2017-10-11T19:45:01.947Z,7.00
2017-10-11T19:47:29.645Z,4.17
2017-10-11T19:49:57.261Z,5.83
2017-10-11T19:52:25.689Z,4.50
2017-10-11T19:54:53.299Z,5.20
2017-10-11T19:57:21.717Z,8.27
2017-10-11T19:59:49.378Z,4.83
2017-10-11T20:02:17.050Z,4.00
2017-10-11T20:04:44.673Z,3.60
2017-10-11T20:07:13.080Z,3.67
2017-10-11T20:09:40.695Z,3.77
2017-10-11T20:12:09.138Z,3.30
2017-10-11T20:14:36.750Z,3.93
2017-10-11T20:17:05.122Z,6.43
2017-10-11T20:19:33.544Z,4.27
2017-10-11T20:22:01.380Z,4.80
2017-10-11T20:24:29.064Z,4.00
2017-10-11T20:26:56.902Z,3.63
2017-10-11T20:29:25.532Z,5.70
2017-10-11T20:31:53.358Z,4.23
2017-10-11T20:34:21.945Z,3.70
2017-10-11T20:36:50.506Z,4.20
2017-10-11T20:39:18.332Z,3.83
2017-10-11T20:41:46.200Z,4.17
2017-10-11T20:44:14.029Z,3.23
2017-10-11T20:46:42.621Z,5.17
2017-10-11T20:49:10.641Z,3.50
2017-10-11T20:51:38.517Z,4.30
2017-10-11T20:54:06.491Z,4.03
2017-10-11T20:56:34.310Z,5.47
2017-10-11T20:59:02.098Z,8.20
2017-10-11T21:01:29.931Z,4.63
2017-10-11T21:03:57.712Z,6.37
2017-10-11T21:06:25.508Z,4.07
2017-10-11T21:08:53.305Z,5.40
2017-10-11T21:11:21.899Z,5.00
2017-10-11T21:13:50.446Z,5.70
2017-10-11T21:16:18.317Z,5.30
2017-10-11T21:18:46.120Z,4.20
2017-10-11T21:21:13.957Z,4.20
2017-10-11T21:23:41.766Z,4.70
2017-10-11T21:26:09.933Z,4.10
2017-10-11T21:28:37.763Z,4.80
2017-10-11T21:31:05.550Z,3.93
2017-10-11T21:33:34.281Z,4.63
2017-10-11T21:36:02.122Z,3.03
2017-10-11T21:38:30.909Z,5.00
2017-10-11T21:40:58.728Z,5.47
2017-10-11T21:43:26.569Z,4.80
2017-10-11T21:45:54.492Z,5.43
2017-10-11T21:48:22.327Z,5.33
2017-10-11T21:50:50.215Z,6.33
2017-10-11T21:53:18.802Z,6.40
2017-10-11T21:55:47.190Z,6.83
2017-10-11T21:58:16.607Z,4.60
2017-10-11T22:00:47.246Z,7.10
2017-10-11T22:03:17.892Z,10.00
2017-10-11T22:05:46.766Z,8.90
2017-10-11T22:08:14.802Z,6.87
2017-10-11T22:10:43.375Z,7.20
2017-10-11T22:13:11.207Z,7.97
2017-10-11T22:15:38.957Z,8.67
2017-10-11T22:18:06.844Z,9.17
2017-10-11T22:20:34.612Z,6.70
2017-10-11T22:23:02.477Z,8.10
2017-10-11T22:25:30.290Z,5.10
2017-10-11T22:27:58.885Z,6.37
2017-10-11T22:30:26.799Z,10.13
2017-10-11T22:32:54.652Z,7.53
2017-10-11T22:35:22.617Z,10.67
2017-10-11T22:37:50.411Z,6.17
2017-10-11T22:40:18.240Z,7.67
2017-10-11T22:42:46.057Z,7.97
2017-10-11T22:45:13.826Z,6.20
2017-10-11T22:47:41.706Z,9.20
2017-10-11T22:50:10.288Z,6.00
2017-10-11T22:52:38.812Z,5.07
2017-10-11T22:55:06.442Z,7.07
2017-10-11T22:57:34.999Z,7.17
2017-10-11T23:00:02.793Z,8.13
2017-10-11T23:02:31.327Z,6.00
2017-10-11T23:04:58.991Z,5.40
2017-10-11T23:07:26.615Z,6.23
2017-10-11T23:09:54.317Z,7.77
2017-10-11T23:12:22.039Z,9.30
2017-10-11T23:14:49.744Z,5.93
2017-10-11T23:17:18.126Z,6.50
2017-10-11T23:19:45.809Z,6.40
2017-10-11T23:22:13.494Z,8.13
2017-10-11T23:24:41.925Z,7.87
2017-10-11T23:27:09.563Z,4.30
2017-10-11T23:29:37.183Z,5.70
2017-10-11T23:32:04.831Z,6.17
2017-10-11T23:34:32.467Z,4.93
2017-10-11T23:37:00.882Z,6.20
2017-10-11T23:39:28.491Z,5.30
2017-10-11T23:41:56.346Z,5.13
2017-10-11T23:44:24.020Z,6.80
2017-10-11T23:46:51.653Z,5.00
2017-10-11T23:49:20.153Z,6.00
2017-10-11T23:51:47.798Z,6.20
2017-10-11T23:54:16.276Z,5.03
2017-10-11T23:56:44.685Z,7.17
2017-10-11T23:59:12.343Z,5.33
